Airfield :
LOGIN :

Register | Disclaimer

   EN    FR    IT 

 










Legend :    VFR   Marginal VFR   IFR   Intensive IFR   Very Intensive IFR
Visi :
Ceiling :
>= 8 km
>= 3000ft
5 to 8 km
1000 to 3000 ft
1500m to 5 km
500 to 1000 ft
800 to 1500m
200 to 500 ft
< 800m
< 200 ft
Symbols :   Thunderstorms  Fog  Heavy snow  Heavy precipitations  Wind > 20 kt
SIGMETs :     Misc.  Thunderstorms  Icing  Turbulence  Mountain Waves  Volcanic Ashes






- Airport Elevation : 90 ft
- IATA code : NTE


LFRS - Nantes

CURRENT METAR :
  • 240530Z AUTO 17005KT 7000 FEW023 BKN032 OVC110 12/12 Q1005 TEMPO 3000 RADZ BKN004

EXPIRED METARs :
  • 240500Z AUTO 14007KT 7000 SCT040 OVC110 12/12 Q1004 TEMPO 3000 RADZ BKN008 SCT040CB
  • 240430Z AUTO 15005KT 7000 SCT006 BKN019 BKN031 12/12 Q1005 TEMPO 3000 RADZ BKN008 SCT040CB
  • 240400Z AUTO 13005KT 6000 BKN012 OVC060 12/12 Q1005 TEMPO 3000 RADZ BKN008 SCT040CB
  • 240330Z AUTO 11003KT 5000 BR SCT001 OVC011 12/12 Q1004 TEMPO -TSRA BKN008 SCT040CB
  • 240300Z AUTO VRB02KT 4300 R03/1400U BR OVC002 12/12 Q1004 TEMPO 0500 FG BKN008 SCT040CB

TAF TAF LFRS
Valid from the 24 at 06:00 until the 25 at 12:00 UTC


240500Z 2406/2512 14005KT 8000 BKN013
TEMPO 2406/2414 3000 RADZ BKN004
PROB30
TEMPO 2408/2410 -TSRA BKN004 SCT040CB
BECMG 2410/2412 25010KT
BECMG 2414/2416 SCT020
BECMG 2421/2424 18005KT 3000 BR
TEMPO 2500/2508 0400 FG
BECMG 2508/2510 BKN016
ATIS : +33 2 40 05 12 74



MET'MAP, your aeronautical weather chart ! - Copyright ORBIFLY December 2007 - Disclaimer

ORBIFLY MET'MAP TEAM :

Programming & Development : Alexandra Zaïnal
Concept & Development : Baudouin d'Aumeries
Co-Development & Prog : Marc-Olivier Méhu
Technical & hardware support : Manuel Goepfert

Contact : metmap@orbifly.com




SOURCES & CREDITS :

   NOAA